Time;durP1;ratioP1;P1;durP2;ratioP2;P2;SDS_P1;SDS_P2;PMS_P1;PMS_P2;Temp;Humidity;BMP_temperature;BMP_pressure;BME280_temperature;BME280_humidity;BME280_pressure;Samples;Min_cycle;Max_cycle;Signal;HPM_P1;HPM_P2
2023/05/02 00:01:04;;;;;;;7.78;3.53;;;12.70;99.90;;;;;;5037745;28;20026;-68
2023/05/02 00:03:31;;;;;;;8.50;2.95;;;12.60;99.90;;;;;;5024760;28;20029;-69
2023/05/02 00:05:59;;;;;;;7.38;3.78;;;12.60;99.90;;;;;;5026175;28;20025;-68
2023/05/02 00:08:24;;;;;;;8.52;3.28;;;12.60;99.90;;;;;;5035979;28;20104;-67
2023/05/02 00:10:50;;;;;;;4.20;3.05;;;12.60;99.90;;;;;;5033685;28;20049;-68
2023/05/02 00:13:16;;;;;;;6.18;3.33;;;12.60;99.90;;;;;;5038684;28;20025;-68
2023/05/02 00:15:41;;;;;;;5.95;3.25;;;12.60;99.90;;;;;;5038543;28;20029;-68
2023/05/02 00:18:07;;;;;;;8.02;3.97;;;12.60;99.90;;;;;;5038196;28;20038;-68
2023/05/02 00:20:33;;;;;;;6.10;3.00;;;12.60;99.90;;;;;;5038815;28;20037;-68
2023/05/02 00:22:58;;;;;;;7.63;3.55;;;12.60;99.90;;;;;;5038345;28;20478;-68
2023/05/02 00:25:24;;;;;;;10.15;3.85;;;12.50;99.90;;;;;;5038386;28;20037;-68
2023/05/02 00:27:50;;;;;;;4.88;3.42;;;12.50;99.90;;;;;;5037994;28;20025;-68
2023/05/02 00:30:16;;;;;;;5.70;4.05;;;12.50;99.90;;;;;;5038327;28;20021;-68
2023/05/02 00:32:43;;;;;;;11.05;4.13;;;12.50;99.90;;;;;;5037581;28;20041;-68
2023/05/02 00:35:09;;;;;;;6.22;3.70;;;12.40;99.90;;;;;;5033991;28;20030;-68
2023/05/02 00:37:35;;;;;;;6.07;4.07;;;12.40;99.90;;;;;;5035346;28;20098;-68
2023/05/02 00:40:02;;;;;;;7.93;4.57;;;12.30;99.90;;;;;;5038086;28;20033;-68
2023/05/02 00:42:30;;;;;;;6.68;3.30;;;12.30;99.90;;;;;;5036626;28;20501;-69
2023/05/02 00:44:56;;;;;;;8.95;4.65;;;12.30;99.90;;;;;;5038356;28;20029;-68
2023/05/02 00:47:22;;;;;;;9.40;3.38;;;12.30;99.90;;;;;;5037930;28;20018;-68
2023/05/02 00:49:49;;;;;;;7.43;4.00;;;12.30;99.90;;;;;;5038202;28;20018;-68
2023/05/02 00:52:15;;;;;;;6.68;4.13;;;12.30;99.90;;;;;;5037899;28;20396;-68
2023/05/02 00:54:42;;;;;;;6.00;3.50;;;12.30;99.90;;;;;;5036680;28;20108;-68
2023/05/02 00:57:07;;;;;;;5.82;3.70;;;12.30;99.90;;;;;;5034274;28;20045;-67
2023/05/02 00:59:37;;;;;;;5.88;3.78;;;12.30;99.90;;;;;;5036498;28;20547;-67
2023/05/02 01:02:24;;;;;;;8.18;3.65;;;12.30;99.90;;;;;;5037739;28;20021;-68
2023/05/02 01:04:58;;;;;;;7.55;3.63;;;12.30;99.90;;;;;;5037123;28;20085;-68
2023/05/02 01:07:33;;;;;;;6.93;4.55;;;12.30;99.90;;;;;;5036663;28;20148;-68
2023/05/02 01:10:26;;;;;;;6.82;3.70;;;12.30;99.90;;;;;;5037464;28;20061;-68
2023/05/02 01:13:02;;;;;;;6.53;3.75;;;12.30;99.90;;;;;;5035484;28;20079;-68
2023/05/02 01:15:29;;;;;;;12.73;4.00;;;12.30;99.90;;;;;;5031580;28;20037;-68
2023/05/02 01:17:56;;;;;;;7.88;3.60;;;12.20;99.90;;;;;;5030324;28;20050;-68
2023/05/02 01:20:25;;;;;;;5.32;3.80;;;12.20;99.90;;;;;;5037535;28;20486;-68
2023/05/02 01:22:53;;;;;;;7.43;3.80;;;12.20;99.90;;;;;;5037308;28;20017;-68
2023/05/02 01:25:29;;;;;;;11.05;4.18;;;12.20;99.90;;;;;;5036901;28;20064;-68
2023/05/02 01:28:01;;;;;;;7.05;3.60;;;12.20;99.90;;;;;;5036943;28;20382;-68
2023/05/02 01:30:29;;;;;;;8.02;4.18;;;12.10;99.90;;;;;;5037166;28;20030;-68
2023/05/02 01:32:57;;;;;;;8.98;4.15;;;12.00;99.90;;;;;;5037207;28;20025;-68
2023/05/02 01:35:25;;;;;;;9.55;3.88;;;11.90;99.90;;;;;;5037207;28;20067;-68
2023/05/02 01:37:52;;;;;;;9.15;4.80;;;11.90;99.90;;;;;;5037460;28;20025;-68
2023/05/02 01:40:21;;;;;;;10.23;4.13;;;11.80;99.90;;;;;;5029998;28;20029;-67
2023/05/02 01:42:49;;;;;;;6.05;4.03;;;11.80;99.90;;;;;;5035319;28;20033;-68
2023/05/02 01:45:16;;;;;;;8.70;3.92;;;11.70;99.90;;;;;;5037252;28;20104;-68
2023/05/02 01:47:43;;;;;;;11.40;4.93;;;11.70;99.90;;;;;;5033787;28;20025;-68
2023/05/02 01:50:15;;;;;;;10.20;4.65;;;11.70;99.90;;;;;;5037017;28;20152;-68
2023/05/02 01:52:41;;;;;;;12.38;4.22;;;11.70;99.90;;;;;;5032484;28;20368;-68
2023/05/02 01:55:10;;;;;;;9.43;3.85;;;11.60;99.90;;;;;;5033753;28;20029;-68
2023/05/02 01:57:38;;;;;;;10.68;4.53;;;11.60;99.90;;;;;;5036767;28;20083;-68
2023/05/02 02:00:05;;;;;;;6.57;3.80;;;11.50;99.90;;;;;;5034875;28;20022;-67
2023/05/02 02:02:33;;;;;;;7.60;4.55;;;11.50;99.90;;;;;;5028927;28;20025;-68
2023/05/02 02:05:02;;;;;;;6.22;4.05;;;11.40;99.90;;;;;;5035366;28;20386;-68
2023/05/02 02:07:28;;;;;;;10.23;4.07;;;11.40;99.90;;;;;;5036964;28;20092;-68
2023/05/02 02:09:54;;;;;;;6.35;4.30;;;11.30;99.90;;;;;;5036364;28;20017;-67
2023/05/02 02:12:26;;;;;;;8.05;4.25;;;11.20;99.90;;;;;;5036952;28;20061;-68
2023/05/02 02:15:26;;;;;;;9.35;4.80;;;11.20;99.90;;;;;;5035408;28;20034;-68
2023/05/02 02:17:59;;;;;;;9.93;4.30;;;11.10;99.90;;;;;;5041256;28;20046;-68
2023/05/02 02:20:27;;;;;;;7.30;4.15;;;11.10;99.90;;;;;;5036962;28;20532;-68
2023/05/02 02:22:55;;;;;;;13.23;4.45;;;11.00;99.90;;;;;;5036348;28;20029;-68
2023/05/02 02:25:21;;;;;;;11.02;5.47;;;11.00;99.90;;;;;;5035190;28;20481;-68
2023/05/02 02:27:47;;;;;;;20.50;5.20;;;10.90;99.90;;;;;;5036580;28;20048;-68
2023/05/02 02:30:15;;;;;;;9.52;4.38;;;10.80;99.90;;;;;;5036845;28;20025;-68
2023/05/02 02:32:41;;;;;;;5.90;4.38;;;10.70;99.90;;;;;;5036376;28;20020;-68
2023/05/02 02:35:07;;;;;;;14.57;5.90;;;10.70;99.90;;;;;;5036745;28;20025;-68
2023/05/02 02:37:53;;;;;;;6.55;4.82;;;10.70;99.90;;;;;;5023580;28;20037;-68
2023/05/02 02:40:52;;;;;;;8.82;4.47;;;10.70;99.90;;;;;;5036617;28;20030;-68
2023/05/02 02:43:43;;;;;;;12.93;4.45;;;10.60;99.90;;;;;;5015965;28;20042;-68
2023/05/02 02:46:23;;;;;;;6.95;5.25;;;10.60;99.90;;;;;;5024414;28;20026;-68
2023/05/02 02:49:11;;;;;;;6.53;4.78;;;10.60;99.90;;;;;;5035817;28;20029;-68
2023/05/02 02:51:52;;;;;;;6.30;4.20;;;10.50;99.90;;;;;;5048725;28;20509;-68
2023/05/02 02:54:21;;;;;;;7.47;4.13;;;10.50;99.90;;;;;;5033928;28;20100;-68
2023/05/02 02:56:57;;;;;;;10.35;4.25;;;10.50;99.90;;;;;;5039779;28;20029;-68
2023/05/02 02:59:28;;;;;;;6.60;5.32;;;10.50;99.90;;;;;;5040251;28;20025;-67
2023/05/02 03:02:11;;;;;;;10.15;5.57;;;10.50;99.90;;;;;;5039545;28;20037;-67
2023/05/02 03:04:42;;;;;;;7.63;5.57;;;10.50;99.90;;;;;;5039585;28;20385;-68
2023/05/02 03:07:08;;;;;;;6.85;5.32;;;10.40;99.90;;;;;;5039380;28;20029;-67
2023/05/02 03:09:45;;;;;;;8.73;4.82;;;10.40;99.90;;;;;;5040113;28;20017;-67
2023/05/02 03:12:11;;;;;;;11.95;5.43;;;10.40;99.90;;;;;;5027797;28;20022;-68
2023/05/02 03:14:38;;;;;;;7.20;4.80;;;10.40;99.90;;;;;;5038612;28;20481;-67
2023/05/02 03:17:03;;;;;;;9.98;5.22;;;10.30;99.90;;;;;;5038515;28;20049;-67
2023/05/02 03:19:29;;;;;;;9.38;6.18;;;10.30;99.90;;;;;;5038830;28;20029;-67
2023/05/02 03:21:55;;;;;;;7.75;4.82;;;10.30;99.90;;;;;;5039896;28;20029;-67
2023/05/02 03:24:21;;;;;;;9.43;5.63;;;10.20;99.90;;;;;;5039615;28;20028;-67
2023/05/02 03:26:47;;;;;;;7.30;5.95;;;10.20;99.90;;;;;;5037369;28;20029;-67
2023/05/02 03:29:13;;;;;;;6.95;5.25;;;10.20;99.90;;;;;;5039491;28;20032;-68
2023/05/02 03:31:39;;;;;;;7.15;5.32;;;10.30;99.90;;;;;;5039753;28;20029;-68
2023/05/02 03:34:05;;;;;;;9.73;5.15;;;10.20;99.90;;;;;;5039276;28;20033;-68
2023/05/02 03:36:31;;;;;;;7.55;5.43;;;10.20;99.90;;;;;;5038190;28;20025;-68
2023/05/02 03:38:57;;;;;;;11.15;4.88;;;10.20;99.90;;;;;;5039232;28;20497;-67
2023/05/02 03:41:23;;;;;;;9.82;4.90;;;10.20;99.90;;;;;;5036935;28;20041;-68
2023/05/02 03:43:50;;;;;;;8.93;5.38;;;10.20;99.90;;;;;;5039166;28;20036;-68
2023/05/02 03:46:15;;;;;;;10.52;5.15;;;10.20;99.90;;;;;;5039130;28;20460;-68
2023/05/02 03:48:41;;;;;;;8.32;5.18;;;10.20;99.90;;;;;;5038681;28;20029;-67
2023/05/02 03:51:08;;;;;;;9.65;5.57;;;10.20;99.90;;;;;;5039420;28;20516;-68
2023/05/02 03:53:34;;;;;;;6.60;4.60;;;10.10;99.90;;;;;;5038031;28;20013;-67
2023/05/02 03:56:01;;;;;;;7.30;4.88;;;10.10;99.90;;;;;;5037478;28;20029;-67
2023/05/02 03:58:27;;;;;;;12.45;6.10;;;10.10;99.90;;;;;;5039091;28;20385;-68
2023/05/02 04:00:53;;;;;;;7.57;5.40;;;10.10;99.90;;;;;;5039196;28;20037;-67
2023/05/02 04:03:19;;;;;;;10.50;5.50;;;10.10;99.90;;;;;;5036790;28;20037;-68
2023/05/02 04:05:45;;;;;;;6.82;4.80;;;10.10;99.90;;;;;;5029598;28;20018;-68
2023/05/02 04:08:11;;;;;;;8.60;5.20;;;10.10;99.90;;;;;;5038861;28;20021;-68
2023/05/02 04:10:37;;;;;;;7.05;5.88;;;10.10;99.90;;;;;;5031538;28;20029;-68
2023/05/02 04:13:03;;;;;;;9.18;5.35;;;10.00;99.90;;;;;;5037384;28;20080;-68
2023/05/02 04:15:30;;;;;;;11.23;5.47;;;10.00;99.90;;;;;;5038334;28;20029;-67
2023/05/02 04:17:57;;;;;;;9.10;5.10;;;10.00;99.90;;;;;;5038027;28;20579;-68
2023/05/02 04:20:23;;;;;;;12.43;5.10;;;10.00;99.90;;;;;;5037198;28;20366;-67
2023/05/02 04:22:49;;;;;;;7.43;5.57;;;10.00;99.90;;;;;;5038366;28;20038;-67
2023/05/02 04:25:15;;;;;;;14.43;6.38;;;9.90;99.90;;;;;;5038695;28;20139;-67
2023/05/02 04:27:41;;;;;;;6.28;5.03;;;9.90;99.90;;;;;;5037142;28;20028;-68
2023/05/02 04:30:09;;;;;;;10.93;5.72;;;9.90;99.90;;;;;;5037991;28;20033;-67
2023/05/02 04:32:35;;;;;;;7.55;4.88;;;9.80;99.90;;;;;;5037144;28;20148;-68
2023/05/02 04:35:00;;;;;;;9.77;4.85;;;9.90;99.90;;;;;;5038523;28;20056;-68
2023/05/02 04:37:26;;;;;;;8.93;6.22;;;9.80;99.90;;;;;;5038270;28;20029;-67
2023/05/02 04:39:52;;;;;;;8.35;6.20;;;9.90;99.90;;;;;;5038329;28;20556;-67
2023/05/02 04:42:17;;;;;;;15.88;5.82;;;9.90;99.90;;;;;;5038076;28;20021;-67
2023/05/02 04:44:43;;;;;;;13.82;5.93;;;10.00;99.90;;;;;;5038514;28;20051;-67
2023/05/02 04:47:09;;;;;;;12.23;6.68;;;9.90;99.90;;;;;;5038062;28;20466;-67
2023/05/02 04:49:35;;;;;;;9.20;5.55;;;9.90;99.90;;;;;;5037768;28;20052;-67
2023/05/02 04:52:00;;;;;;;13.50;5.35;;;9.90;99.90;;;;;;5033426;28;20394;-67
2023/05/02 04:54:26;;;;;;;6.30;5.53;;;9.90;99.90;;;;;;5036789;28;20037;-67
2023/05/02 04:56:52;;;;;;;10.57;6.45;;;9.90;99.90;;;;;;5035079;28;20026;-68
2023/05/02 04:59:18;;;;;;;7.43;5.57;;;9.80;99.90;;;;;;5038007;28;20040;-68
2023/05/02 05:01:44;;;;;;;7.15;5.40;;;9.80;99.90;;;;;;5036688;28;20067;-67
2023/05/02 05:04:09;;;;;;;9.32;5.88;;;9.80;99.90;;;;;;5037607;28;20021;-67
2023/05/02 05:06:35;;;;;;;7.53;5.60;;;9.80;99.90;;;;;;5032898;28;20497;-68
2023/05/02 05:09:01;;;;;;;10.07;6.13;;;9.90;99.90;;;;;;5034597;28;20025;-67
2023/05/02 05:11:27;;;;;;;11.63;6.55;;;9.90;99.90;;;;;;5033273;28;20023;-67
2023/05/02 05:13:52;;;;;;;13.05;5.90;;;9.90;99.90;;;;;;5037795;28;20041;-67
2023/05/02 05:16:18;;;;;;;15.07;5.90;;;10.10;99.90;;;;;;5034097;28;20371;-67
2023/05/02 05:18:44;;;;;;;6.95;5.57;;;10.10;99.90;;;;;;5032752;28;20033;-67
2023/05/02 05:21:10;;;;;;;11.48;5.72;;;10.10;99.90;;;;;;5022378;28;20030;-68
2023/05/02 05:23:36;;;;;;;12.88;6.07;;;10.20;99.90;;;;;;5037458;28;20030;-68
2023/05/02 05:26:16;;;;;;;8.30;5.78;;;10.20;99.90;;;;;;5037303;28;20381;-68
2023/05/02 05:28:42;;;;;;;11.13;5.55;;;10.30;99.90;;;;;;5035537;28;20029;-68
2023/05/02 05:31:11;;;;;;;8.05;4.93;;;10.40;99.90;;;;;;5037458;28;20504;-68
2023/05/02 05:33:37;;;;;;;7.93;5.20;;;10.40;99.90;;;;;;5037217;28;20031;-68
2023/05/02 05:36:07;;;;;;;12.18;5.78;;;10.50;99.90;;;;;;5036614;28;20009;-68
2023/05/02 05:38:33;;;;;;;12.60;5.63;;;10.50;99.90;;;;;;5037315;28;20025;-67
2023/05/02 05:41:00;;;;;;;7.13;5.43;;;10.60;99.90;;;;;;5035908;28;20033;-68
2023/05/02 05:43:26;;;;;;;8.63;5.13;;;10.70;99.90;;;;;;5036915;28;20478;-68
2023/05/02 05:45:52;;;;;;;9.88;5.85;;;10.70;99.90;;;;;;5036660;28;20117;-68
2023/05/02 05:48:17;;;;;;;9.10;5.70;;;10.80;99.90;;;;;;5031327;28;20025;-67
2023/05/02 05:50:43;;;;;;;8.52;5.15;;;10.90;99.90;;;;;;5034214;28;20025;-68
2023/05/02 05:53:09;;;;;;;8.73;6.25;;;11.00;99.90;;;;;;5036930;28;20172;-67
2023/05/02 05:55:36;;;;;;;10.07;5.18;;;11.10;99.90;;;;;;5032274;28;20026;-67
2023/05/02 05:58:02;;;;;;;10.15;5.45;;;11.20;99.90;;;;;;5036852;28;20057;-68
2023/05/02 06:00:28;;;;;;;10.15;5.15;;;11.30;99.90;;;;;;5036916;28;20021;-68
2023/05/02 06:02:54;;;;;;;7.65;4.55;;;11.40;99.90;;;;;;5036832;28;20057;-67
2023/05/02 06:05:19;;;;;;;7.80;4.53;;;11.40;99.90;;;;;;5028611;28;20028;-68
2023/05/02 06:07:45;;;;;;;10.55;5.85;;;11.50;99.90;;;;;;5036707;28;20033;-68
2023/05/02 06:10:11;;;;;;;7.60;4.13;;;11.60;99.90;;;;;;5036541;28;20485;-67
2023/05/02 06:12:36;;;;;;;6.63;5.13;;;11.70;99.90;;;;;;5031122;28;20124;-68
2023/05/02 06:15:02;;;;;;;9.57;4.78;;;11.80;99.90;;;;;;5030620;28;20060;-68
2023/05/02 06:17:28;;;;;;;7.03;4.35;;;11.90;99.90;;;;;;5035067;28;20092;-68
2023/05/02 06:19:53;;;;;;;8.93;5.28;;;12.00;99.90;;;;;;5036654;28;20029;-69
2023/05/02 06:22:19;;;;;;;7.25;4.68;;;12.10;99.90;;;;;;5036650;28;20075;-68
2023/05/02 06:24:45;;;;;;;14.27;5.95;;;12.20;99.90;;;;;;5036471;28;20020;-68
2023/05/02 06:27:10;;;;;;;10.27;5.18;;;12.30;99.90;;;;;;5034489;28;20096;-68
2023/05/02 06:29:36;;;;;;;14.70;4.90;;;12.30;99.90;;;;;;5037849;28;20400;-68
2023/05/02 06:32:03;;;;;;;12.77;5.00;;;12.40;99.90;;;;;;5040985;28;20029;-68
2023/05/02 06:34:31;;;;;;;5.70;4.20;;;12.50;99.90;;;;;;5039347;28;20018;-68
2023/05/02 06:36:57;;;;;;;7.13;4.18;;;12.60;99.90;;;;;;5040800;28;20029;-68
2023/05/02 06:39:23;;;;;;;10.27;4.50;;;12.70;99.90;;;;;;5040667;28;20112;-67
2023/05/02 06:41:49;;;;;;;7.75;4.40;;;12.80;99.90;;;;;;5035011;28;20061;-68
2023/05/02 06:44:15;;;;;;;9.02;4.65;;;12.90;99.90;;;;;;5040546;28;20056;-67
2023/05/02 06:46:41;;;;;;;5.40;3.90;;;12.90;99.90;;;;;;5039431;28;20508;-68
2023/05/02 06:49:06;;;;;;;14.60;4.45;;;13.00;99.90;;;;;;5038392;28;20481;-68
2023/05/02 06:51:32;;;;;;;16.90;4.65;;;13.10;99.90;;;;;;5037818;28;20029;-68
2023/05/02 06:53:58;;;;;;;9.65;4.32;;;13.20;99.90;;;;;;5039226;28;20034;-68
2023/05/02 06:56:24;;;;;;;9.38;4.15;;;13.30;99.90;;;;;;5039813;28;20033;-67
2023/05/02 06:58:50;;;;;;;6.22;4.43;;;13.30;99.90;;;;;;5040075;28;20028;-68
2023/05/02 07:01:16;;;;;;;5.60;4.25;;;13.40;99.90;;;;;;5036843;28;20440;-68
2023/05/02 07:03:41;;;;;;;8.48;4.88;;;13.50;99.90;;;;;;5039251;28;20023;-68
2023/05/02 07:06:07;;;;;;;7.28;4.72;;;13.70;99.90;;;;;;5040158;28;20060;-68
2023/05/02 07:08:33;;;;;;;8.07;4.25;;;13.80;99.90;;;;;;5040966;28;20097;-68
2023/05/02 07:10:58;;;;;;;6.57;4.53;;;13.80;99.90;;;;;;5039933;28;20026;-68
2023/05/02 07:13:24;;;;;;;13.13;6.38;;;14.00;99.90;;;;;;5040189;28;20021;-68
2023/05/02 07:15:50;;;;;;;8.52;5.18;;;14.00;99.90;;;;;;5040013;28;20029;-67
2023/05/02 07:18:15;;;;;;;14.48;5.43;;;14.10;99.90;;;;;;5039253;28;20057;-67
2023/05/02 07:20:41;;;;;;;12.77;5.10;;;14.20;99.90;;;;;;5037423;28;20033;-68
2023/05/02 07:23:08;;;;;;;12.90;4.75;;;14.30;99.90;;;;;;5038285;28;20045;-68
2023/05/02 07:25:34;;;;;;;5.07;3.80;;;14.30;99.90;;;;;;5038326;28;20028;-67
2023/05/02 07:28:00;;;;;;;9.98;4.82;;;14.30;99.90;;;;;;5037848;28;20429;-67
2023/05/02 07:30:25;;;;;;;17.45;5.10;;;14.40;99.90;;;;;;5039243;28;20077;-68
2023/05/02 07:32:51;;;;;;;7.25;3.97;;;14.50;99.90;;;;;;5039364;28;20021;-68
2023/05/02 07:35:17;;;;;;;5.22;3.28;;;14.60;99.90;;;;;;5031778;28;20053;-68
2023/05/02 07:37:42;;;;;;;8.20;3.70;;;14.50;99.90;;;;;;5037418;28;20072;-68
2023/05/02 07:40:08;;;;;;;8.45;4.05;;;14.60;99.90;;;;;;5038926;28;20108;-68
2023/05/02 07:42:35;;;;;;;7.97;3.83;;;14.70;99.90;;;;;;5038941;28;20025;-68
2023/05/02 07:45:01;;;;;;;5.40;3.40;;;14.90;99.90;;;;;;5039207;28;20017;-67
2023/05/02 07:47:26;;;;;;;11.15;4.60;;;15.10;99.90;;;;;;5039271;28;20060;-68
2023/05/02 07:49:53;;;;;;;7.80;3.72;;;15.10;99.90;;;;;;5039101;28;20022;-68
2023/05/02 07:52:19;;;;;;;8.27;3.50;;;15.10;99.90;;;;;;5039889;28;20051;-68
2023/05/02 07:54:47;;;;;;;5.65;3.95;;;15.10;99.90;;;;;;5039073;28;20410;-68
2023/05/02 07:57:13;;;;;;;9.85;3.63;;;15.10;99.90;;;;;;5039015;28;20382;-68
2023/05/02 07:59:39;;;;;;;8.60;3.75;;;15.30;99.90;;;;;;5037740;28;20041;-68
2023/05/02 08:02:04;;;;;;;6.28;3.70;;;15.40;99.90;;;;;;5037867;28;20044;-67
2023/05/02 08:04:30;;;;;;;6.88;3.60;;;15.40;99.90;;;;;;5030861;28;20044;-68
2023/05/02 08:06:56;;;;;;;5.65;3.88;;;15.50;99.90;;;;;;5031866;28;20021;-67
2023/05/02 08:09:22;;;;;;;6.25;4.28;;;15.50;99.90;;;;;;5035050;28;20036;-68
2023/05/02 08:11:47;;;;;;;8.10;5.03;;;15.40;99.90;;;;;;5032981;28;20120;-67
2023/05/02 08:14:15;;;;;;;6.65;3.75;;;15.30;99.90;;;;;;5033884;28;20077;-68
2023/05/02 08:16:41;;;;;;;6.60;4.13;;;15.30;99.90;;;;;;5037777;28;20042;-68
2023/05/02 08:19:07;;;;;;;9.00;4.82;;;15.30;99.90;;;;;;5038724;28;20025;-68
2023/05/02 08:21:33;;;;;;;6.05;3.72;;;15.30;99.90;;;;;;5038604;28;20043;-68
2023/05/02 08:23:59;;;;;;;8.90;3.97;;;15.20;99.90;;;;;;5037184;28;20049;-69
2023/05/02 08:26:26;;;;;;;8.63;3.67;;;15.20;99.90;;;;;;5041047;28;20482;-69
2023/05/02 08:28:51;;;;;;;8.23;3.10;;;15.30;99.90;;;;;;5038658;28;20544;-69
2023/05/02 08:31:17;;;;;;;9.48;3.35;;;15.40;99.90;;;;;;5038770;28;20029;-68
2023/05/02 08:33:43;;;;;;;7.65;3.92;;;15.50;99.90;;;;;;5037213;28;20022;-69
2023/05/02 08:36:13;;;;;;;9.32;3.50;;;15.50;99.90;;;;;;5038434;28;20014;-69
2023/05/02 08:38:39;;;;;;;16.08;4.22;;;15.50;99.90;;;;;;5037361;28;20017;-69
2023/05/02 08:41:12;;;;;;;10.95;4.20;;;15.60;99.90;;;;;;5037394;28;20030;-69
2023/05/02 08:43:39;;;;;;;9.55;4.07;;;15.60;99.90;;;;;;5035535;28;20080;-69
2023/05/02 08:46:08;;;;;;;7.50;3.95;;;15.80;99.90;;;;;;5037846;28;20017;-69
2023/05/02 08:48:35;;;;;;;7.38;3.30;;;15.80;99.90;;;;;;5037713;28;20056;-69
2023/05/02 08:51:02;;;;;;;7.47;3.13;;;15.80;99.90;;;;;;5038082;28;20017;-69
2023/05/02 08:53:33;;;;;;;7.65;3.95;;;15.90;99.90;;;;;;5032421;28;20106;-69
2023/05/02 08:55:59;;;;;;;4.75;3.33;;;16.10;99.90;;;;;;5033780;28;20037;-69
2023/05/02 08:58:25;;;;;;;5.32;3.03;;;16.30;99.90;;;;;;5035680;28;20113;-70
2023/05/02 09:00:52;;;;;;;8.25;3.70;;;16.30;99.90;;;;;;5028452;28;20065;-70
2023/05/02 09:03:34;;;;;;;4.95;3.50;;;16.30;99.90;;;;;;5033565;28;20711;-70
2023/05/02 09:06:11;;;;;;;10.63;3.15;;;16.40;99.90;;;;;;5030486;28;20036;-69
2023/05/02 09:08:37;;;;;;;5.43;3.05;;;16.50;99.90;;;;;;5036898;28;20029;-70
2023/05/02 09:11:04;;;;;;;14.75;8.02;;;16.60;99.90;;;;;;5034264;28;20048;-69
2023/05/02 09:13:40;;;;;;;11.70;6.38;;;16.50;99.90;;;;;;5026893;28;20033;-70
2023/05/02 09:16:18;;;;;;;5.57;3.40;;;16.60;99.90;;;;;;5036678;28;20025;-70
2023/05/02 09:18:55;;;;;;;9.05;3.60;;;16.70;99.90;;;;;;5037145;28;20033;-69
2023/05/02 09:21:26;;;;;;;12.43;4.47;;;16.80;99.90;;;;;;5036898;28;20010;-70
2023/05/02 09:23:55;;;;;;;4.43;2.75;;;16.90;99.90;;;;;;5035969;28;20017;-71
2023/05/02 09:26:32;;;;;;;6.35;3.50;;;16.90;99.90;;;;;;5036191;28;20025;-71
2023/05/02 09:29:07;;;;;;;4.07;2.03;;;16.90;99.90;;;;;;5022566;28;20036;-70
2023/05/02 09:31:38;;;;;;;4.93;2.85;;;16.80;99.90;;;;;;5034320;28;20071;-69
2023/05/02 09:34:22;;;;;;;7.70;3.13;;;16.80;99.90;;;;;;5036013;28;20371;-69
2023/05/02 09:36:52;;;;;;;5.85;2.88;;;16.80;99.90;;;;;;5033951;28;20051;-69
2023/05/02 09:39:20;;;;;;;9.40;4.00;;;16.90;99.90;;;;;;5036776;28;20046;-68
2023/05/02 09:41:47;;;;;;;6.35;3.05;;;17.00;99.90;;;;;;5036084;28;20041;-69
2023/05/02 09:44:17;;;;;;;8.60;3.83;;;17.10;99.90;;;;;;5034693;28;20033;-68
2023/05/02 09:46:44;;;;;;;6.70;4.03;;;17.30;99.90;;;;;;5035790;28;20032;-69
2023/05/02 09:49:10;;;;;;;6.45;3.20;;;17.50;99.90;;;;;;5035779;28;20035;-69
2023/05/02 09:51:36;;;;;;;4.72;2.90;;;17.50;99.90;;;;;;5037805;28;20026;-69
2023/05/02 09:54:02;;;;;;;7.93;3.40;;;17.70;99.90;;;;;;5036848;28;20390;-70
2023/05/02 09:56:28;;;;;;;5.05;2.58;;;17.80;99.90;;;;;;5035702;28;20144;-69
2023/05/02 09:59:13;;;;;;;8.35;2.67;;;17.80;99.90;;;;;;5032375;28;20025;-69
2023/05/02 10:01:41;;;;;;;4.88;2.30;;;17.90;99.90;;;;;;5045509;28;20032;-69
2023/05/02 10:04:15;;;;;;;7.95;2.97;;;18.10;99.90;;;;;;5030076;28;20044;-69
2023/05/02 10:06:44;;;;;;;6.68;3.42;;;18.10;99.90;;;;;;5026755;28;20025;-68
2023/05/02 10:09:12;;;;;;;6.43;3.20;;;17.60;99.90;;;;;;5036242;28;20089;-68
2023/05/02 10:11:41;;;;;;;4.40;2.60;;;17.60;99.90;;;;;;5032877;28;20061;-69
2023/05/02 10:14:11;;;;;;;8.43;3.40;;;17.80;99.90;;;;;;5035549;28;20079;-68
2023/05/02 10:16:53;;;;;;;6.90;3.00;;;18.00;99.90;;;;;;5030865;28;20528;-69
2023/05/02 10:19:26;;;;;;;4.72;2.38;;;18.00;99.90;;;;;;5031839;28;20037;-69
2023/05/02 10:21:52;;;;;;;5.18;2.45;;;18.00;99.90;;;;;;5035988;28;20433;-68
2023/05/02 10:24:19;;;;;;;3.67;2.10;;;18.00;99.90;;;;;;5035071;28;20089;-68
2023/05/02 10:26:47;;;;;;;6.93;2.05;;;18.10;99.90;;;;;;5035395;28;20051;-68
2023/05/02 10:29:13;;;;;;;5.65;2.10;;;18.40;99.90;;;;;;5032085;28;20076;-68
2023/05/02 10:31:41;;;;;;;4.18;2.05;;;18.50;99.90;;;;;;5032599;28;20025;-68
2023/05/02 10:34:09;;;;;;;5.55;1.88;;;18.60;99.90;;;;;;5035234;28;20370;-69
2023/05/02 10:36:35;;;;;;;4.57;2.10;;;18.60;99.90;;;;;;5035741;28;20021;-68
2023/05/02 10:39:01;;;;;;;4.65;2.10;;;18.80;99.90;;;;;;5028674;28;20496;-68
2023/05/02 10:41:31;;;;;;;6.72;2.97;;;18.80;99.90;;;;;;5034959;28;20374;-69
2023/05/02 10:43:57;;;;;;;4.75;2.25;;;18.90;99.90;;;;;;5034455;28;20425;-69
2023/05/02 10:46:33;;;;;;;3.85;2.60;;;18.70;99.90;;;;;;5036506;28;20034;-69
2023/05/02 10:49:08;;;;;;;11.82;2.33;;;18.80;99.90;;;;;;5034991;28;20048;-69
2023/05/02 10:51:36;;;;;;;6.22;2.20;;;18.90;99.90;;;;;;5034811;28;20028;-69
2023/05/02 10:54:20;;;;;;;7.22;2.53;;;18.90;99.90;;;;;;5035491;28;20026;-70
2023/05/02 10:57:02;;;;;;;6.15;2.40;;;18.70;99.90;;;;;;5033218;28;20072;-69
2023/05/02 10:59:29;;;;;;;7.60;2.20;;;18.80;99.90;;;;;;5032755;28;20029;-69
2023/05/02 11:01:56;;;;;;;6.43;2.25;;;19.00;99.90;;;;;;5035711;28;20030;-68
2023/05/02 11:04:22;;;;;;;4.70;2.15;;;19.00;99.90;;;;;;5026220;28;20032;-69
2023/05/02 11:06:59;;;;;;;3.28;2.15;;;19.10;99.90;;;;;;5035650;28;20085;-69
2023/05/02 11:09:28;;;;;;;3.75;1.67;;;19.20;99.00;;;;;;5033213;28;20055;-71
2023/05/02 11:11:56;;;;;;;5.53;2.10;;;19.20;97.60;;;;;;5024534;28;20028;-68
2023/05/02 11:14:24;;;;;;;4.10;2.00;;;19.10;97.20;;;;;;5034941;28;20053;-69
2023/05/02 11:17:05;;;;;;;8.43;2.00;;;19.00;98.80;;;;;;5039214;28;20046;-69
2023/05/02 11:19:36;;;;;;;3.97;1.55;;;19.00;99.70;;;;;;5039717;28;20044;-70
2023/05/02 11:22:25;;;;;;;5.10;2.00;;;19.20;98.00;;;;;;5039842;28;20109;-69
2023/05/02 11:24:52;;;;;;;4.00;1.92;;;19.10;96.10;;;;;;5036090;28;20458;-69
2023/05/02 11:27:32;;;;;;;2.42;1.50;;;19.20;96.90;;;;;;5039516;28;20026;-69
2023/05/02 11:30:03;;;;;;;;;;;19.40;97.40;;;;;;5034384;28;20025;-69
2023/05/02 11:32:44;;;;;;;5.03;1.95;;;19.60;98.80;;;;;;5028181;28;19916;-70
2023/05/02 11:35:31;;;;;;;3.63;2.15;;;19.70;94.10;;;;;;5039482;28;20100;-69
2023/05/02 11:38:02;;;;;;;4.20;1.73;;;19.60;95.90;;;;;;5033078;28;20029;-69
2023/05/02 11:40:29;;;;;;;4.38;1.65;;;19.50;93.40;;;;;;5038942;28;20025;-69
2023/05/02 11:42:56;;;;;;;3.72;1.60;;;19.70;98.00;;;;;;5037252;28;20109;-69
2023/05/02 11:45:35;;;;;;;3.78;1.75;;;19.90;96.50;;;;;;5038455;28;20022;-70
2023/05/02 11:48:03;;;;;;;5.93;1.85;;;19.90;93.60;;;;;;5038582;28;20049;-69
2023/05/02 11:50:29;;;;;;;3.30;1.70;;;19.90;94.10;;;;;;5038640;28;20021;-70
2023/05/02 11:52:56;;;;;;;4.47;1.65;;;19.80;93.40;;;;;;5027322;28;20108;-69
2023/05/02 11:55:22;;;;;;;5.75;1.65;;;19.70;93.90;;;;;;5032869;28;20047;-69
2023/05/02 11:57:48;;;;;;;3.58;1.80;;;19.80;96.70;;;;;;5035350;28;20042;-69
2023/05/02 12:00:14;;;;;;;5.85;1.80;;;20.00;96.40;;;;;;5033479;28;20667;-70
2023/05/02 12:02:41;;;;;;;3.08;1.67;;;20.00;93.10;;;;;;5036736;28;20105;-69
2023/05/02 12:05:09;;;;;;;4.65;1.90;;;20.10;93.40;;;;;;5037391;28;20016;-69
2023/05/02 12:07:41;;;;;;;3.50;1.90;;;20.20;95.50;;;;;;5042913;28;20029;-69
2023/05/02 12:10:08;;;;;;;2.97;1.35;;;20.40;95.60;;;;;;5036938;28;20112;-69
2023/05/02 12:12:35;;;;;;;8.32;1.90;;;20.50;95.30;;;;;;5038807;28;20030;-69
2023/05/02 12:15:05;;;;;;;4.13;1.50;;;20.70;94.40;;;;;;5039207;28;20049;-69
2023/05/02 12:17:50;;;;;;;3.15;1.42;;;20.80;92.40;;;;;;5038337;28;20046;-71
2023/05/02 12:20:17;;;;;;;5.50;1.70;;;20.60;91.40;;;;;;5037769;28;20030;-70
2023/05/02 12:22:43;;;;;;;4.50;1.63;;;20.50;91.90;;;;;;5038558;28;20096;-70
2023/05/02 12:25:09;;;;;;;3.92;1.58;;;20.50;91.80;;;;;;5038972;28;20028;-70
2023/05/02 12:27:34;;;;;;;6.20;1.65;;;20.80;92.10;;;;;;5038838;28;20868;-70
2023/05/02 12:30:01;;;;;;;3.80;1.50;;;20.60;91.40;;;;;;5038771;28;20018;-70
2023/05/02 12:32:28;;;;;;;5.22;1.70;;;20.50;90.80;;;;;;5038511;28;20076;-71
2023/05/02 12:34:55;;;;;;;4.35;1.48;;;20.40;92.30;;;;;;5027478;28;20025;-72
2023/05/02 12:37:27;;;;;;;4.05;1.58;;;20.30;91.70;;;;;;5038139;28;20036;-72
2023/05/02 12:39:54;;;;;;;6.35;1.73;;;20.30;91.60;;;;;;5033436;28;20048;-71
2023/05/02 12:42:22;;;;;;;4.78;1.60;;;20.30;90.90;;;;;;5035678;28;20033;-71
2023/05/02 12:44:51;;;;;;;5.78;2.65;;;20.40;92.60;;;;;;5038432;28;20013;-70
2023/05/02 12:47:17;;;;;;;74.63;29.38;;;20.60;93.80;;;;;;5036960;28;20025;-69
2023/05/02 12:49:57;;;;;;;7.72;3.35;;;20.80;95.00;;;;;;5037384;28;20022;-70
2023/05/02 12:52:58;;;;;;;6.28;1.95;;;20.90;92.40;;;;;;5037862;28;20025;-69